Weather at Unknown Field

Public forecast

Using degrees Fahrenheit for public forecast. Weather courtesy of forecast.io.

Closest aviation weather report (METAR) to Unknown Field

Closest report is Worcester Regional Airport, 14.6 nm (27.0 km) W. Retrieved 2020/09/24 19:54 UTC (53 minutes ago):

KORH 241954Z 25009KT 10SM CLR 21/13 A2996 RMK AO2 SLP144 T02110128

Closest aviation forecast (TAF) to Unknown Field

Closest forecast is Worcester Regional Airport, 14.6 nm (27.0 km) W. Retrieved 2020/09/24 18:33 UTC (2 hours ago):

TAF KORH 241731Z 2418/2518 25006KT P6SM BKN250 FM242300 23005KT P6SM SCT250 FM250600 27008KT P6SM SCT250